Frankfort, IL

7:45 AM CDT on May 05, 2015 (GMT -0500)
Krusemark Sub. | | Change Station
CLOSE
Current Station
Personal Weather Station
Location: Frankfort, IL
Elevation: 770 ft
Nearby Weather Stations

Elev 770 ft 41.50 °N, 87.85 °W | Updated 50 seconds ago

Overcast
Overcast
52.5 °F
Feels Like 52.5 °F
N
7.0
Wind Variable Wind from NE
Gusts 12.0 mph

Today
High -- | Low -- °F
--% Chance of Precip.
Yesterday
High -- | Low -- °F
Precip. -- in
5:43 AM 7:53 PM
Full, 98% visible
Pressure 30.17 in
Visibility 2.0 miles
Clouds Overcast 400 ft
Dew Point 51 °F
Humidity 96%
Rainfall 0.79 in
Snow Depth Not available.
UV 0 out of 12
Pollen .60 out of 12
Air Quality Not available.
Flu Activity Local Activity
METAR KLOT 051235Z AUTO 08009KT 2SM BR OVC004 12/12 A3017 RMK AO2 T01170116

More Conditions Fewer Conditions

Pressure 30.17 in
Visibility 2.0 miles
Clouds Overcast 400 ft
Dew Point 51 °F
Humidity 96%
Rainfall 0.79 in
Snow Depth Not available.
UV 0 out of 12
Pollen .60 out of 12
Air Quality Not available.
Flu Activity Local Activity
METAR KLOT 051235Z AUTO 08009KT 2SM BR OVC004 12/12 A3017 RMK AO2 T01170116

More Conditions Fewer Conditions

Nepal has a long way to go to dig out and rebuild from a devastating earthquake. We have teamed up with several charities and organizations to make contributing to the relief effort as easy as possible.
How you can help: Portlight Strategies | Red Cross

10-Day Weather Forecast

Almanac

Astronomy

May. 05, 2015 Rise Set
Actual Time
Civil Twilight
Nautical Twilight
Astronomical Twilight
Moon
Length of Visible Light
Length of Day
Tomorrow will be .
, % of the Moon is Illuminated

Today's Extremes

State Highs State Lows

Community

WunderPhotos

Upload Photos

1,818,875 photos uploaded!

WunderBlogs® & News

Nearby

Air Quality

  Air Quality AQ Index Pollutant
Not available.

Snow Depth

Station Depth Elevation

Earthquake Activity

City Distance Mag. Time & Date
Minimum magnitude displayed is 2.5.

Coastal Water Temperatures

Place Temperature

Stations

Nearby Weather Stations

Station Location Temp. Windchill Dew Point Humidity Wind Precip. Elev Updated Type